Big Bear Station Historical Data
Daily Summary for December 14, 2019 Units:  English    Metric   Both
Next Day »
Daily Weekly Monthly Yearly Custom
  High: Low: Average:
Temperature: 46.2 °F 31.1 °F 39.2 °F
Dew Point: 38.5 °F 29.4 °F 35.1 °F
Humidity: 96% 58% 86%
Wind Speed: 7.8mph 0mph 3.1mph
Wind Gust: -999mph - -
Wind- - West
Pressure: 23.49 in 23.30 in -
Precipitation: 0 in    
Historical Graphs
 
 
Tabular Data for December 14, 2019
Time Temperature Dew Point Pressure Wind Wind Speed Wind Gust Humidity Rainfall Rate (Hourly)
00:00 45.5 °F 36.3 °F 23.49 in NW 7.3 mph -999 mph 70% 0.00 in
00:15 45.7 °F 36.8 °F 23.48 in NNW 3.2 mph -999 mph 71% 0.00 in
00:31 45.3 °F 36.8 °F 23.48 in West 6.3 mph -999 mph 72% 0.00 in
00:46 45.9 °F 37 °F 23.48 in NNW 4.7 mph -999 mph 71% 0.00 in
01:02 46 °F 37.1 °F 23.47 in NW 3.7 mph -999 mph 71% 0.00 in
01:18 46 °F 37.1 °F 23.47 in NNW 6.3 mph -999 mph 71% 0.00 in
01:33 45.5 °F 37 °F 23.46 in SW 2.2 mph -999 mph 72% 0.00 in
01:48 45 °F 36.9 °F 23.46 in WNW 4.2 mph -999 mph 73% 0.00 in
02:03 45 °F 37.2 °F 23.46 in NNE 1.7 mph -999 mph 74% 0.00 in
02:19 44.4 °F 37 °F 23.45 in NW 2.7 mph -999 mph 75% 0.00 in
02:34 44.1 °F 37 °F 23.45 in Calm   -999 mph 76% 0.00 in
02:49 43.3 °F 36.6 °F 23.45 in Calm   -999 mph 77% 0.00 in
03:04 42.4 °F 36.4 °F 23.45 in Calm   -999 mph 79% 0.00 in
03:20 41.7 °F 36.3 °F 23.44 in Calm   -999 mph 81% 0.00 in
03:35 41.2 °F 36.4 °F 23.44 in Calm   -999 mph 83% 0.00 in
03:50 40.5 °F 36 °F 23.44 in Calm   -999 mph 84% 0.00 in
04:06 39.4 °F 35.9 °F 23.43 in Calm   -999 mph 87% 0.00 in
04:21 39.2 °F 35.7 °F 23.42 in Calm   -999 mph 87% 0.00 in
04:36 41 °F 35.9 °F 23.42 in WNW 2.2 mph -999 mph 82% 0.00 in
04:51 40.8 °F 35.7 °F 23.42 in South 1.1 mph -999 mph 82% 0.00 in
05:07 40.6 °F 36.4 °F 23.42 in West 1.7 mph -999 mph 85% 0.00 in
05:22 40.3 °F 36.4 °F 23.42 in SSW 2.2 mph -999 mph 86% 0.00 in
05:37 40.3 °F 36.7 °F 23.42 in Calm   -999 mph 87% 0.00 in
05:52 40.1 °F 36.8 °F 23.42 in NNW 3.2 mph -999 mph 88% 0.00 in
06:07 40.1 °F 36.8 °F 23.42 in NW 4.7 mph -999 mph 88% 0.00 in
06:23 39.6 °F 36.6 °F 23.42 in WNW 2.2 mph -999 mph 89% 0.00 in
06:38 39.2 °F 36.5 °F 23.42 in NNW 3.2 mph -999 mph 90% 0.00 in
06:53 38.8 °F 36.4 °F 23.42 in Calm   -999 mph 91% 0.00 in
07:09 38.8 °F 37 °F 23.42 in WNW 3.7 mph -999 mph 93% 0.00 in
07:24 38.7 °F 37.1 °F 23.42 in Calm   -999 mph 94% 0.00 in
07:40 38.7 °F 37.1 °F 23.42 in WNW 2.2 mph -999 mph 94% 0.00 in
07:55 39.6 °F 37.2 °F 23.42 in ENE 4.2 mph -999 mph 91% 0.00 in
08:11 40.6 °F 37.3 °F 23.42 in West 2.2 mph -999 mph 88% 0.00 in
08:26 41.5 °F 37.6 °F 23.42 in WSW 3.2 mph -999 mph 86% 0.00 in
08:41 41.9 °F 38 °F 23.42 in West 4.7 mph -999 mph 86% 0.00 in
08:57 42.1 °F 37.9 °F 23.42 in NW 7.8 mph -999 mph 85% 0.00 in
09:12 42.4 °F 37.9 °F 23.42 in West 2.7 mph -999 mph 84% 0.00 in
09:28 42.6 °F 38.4 °F 23.42 in NNW 3.2 mph -999 mph 85% 0.00 in
09:43 43 °F 38.5 °F 23.42 in NNW 5.8 mph -999 mph 84% 0.00 in
09:58 43 °F 38.5 °F 23.42 in NNW 6.3 mph -999 mph 84% 0.00 in
10:13 43.3 °F 38.5 °F 23.42 in NW 2.2 mph -999 mph 83% 0.00 in
10:28 43.5 °F 38.1 °F 23.41 in West 2.7 mph -999 mph 81% 0.00 in
10:44 43.7 °F 38.3 °F 23.40 in WNW 5.3 mph -999 mph 81% 0.00 in
10:59 44.4 °F 37 °F 23.40 in SW 3.2 mph -999 mph 75% 0.00 in
11:14 45.3 °F 35 °F 23.39 in NW 4.2 mph -999 mph 67% 0.00 in
11:30 45.7 °F 33.8 °F 23.38 in West 6.3 mph -999 mph 63% 0.00 in
11:45 45.3 °F 35.4 °F 23.38 in WNW 3.2 mph -999 mph 68% 0.00 in
12:00 46.2 °F 33.5 °F 23.37 in WNW 3.2 mph -999 mph 61% 0.00 in
12:16 46.2 °F 32.2 °F 23.37 in SSW 1.7 mph -999 mph 58% 0.00 in
12:31 44.1 °F 38.3 °F 23.36 in NW 4.2 mph -999 mph 80% 0.00 in
12:46 41.5 °F 38.5 °F 23.36 in NW 5.8 mph -999 mph 89% 0.00 in
13:02 41.2 °F 38.2 °F 23.35 in NW 4.2 mph -999 mph 89% 0.00 in
13:17 40.3 °F 37.9 °F 23.35 in NW 3.7 mph -999 mph 91% 0.00 in
13:32 39.9 °F 38 °F 23.35 in NW 4.2 mph -999 mph 93% 0.00 in
13:48 40.3 °F 37 °F 23.35 in SW 1.1 mph -999 mph 88% 0.00 in
14:03 39.7 °F 36.4 °F 23.34 in NW 4.7 mph -999 mph 88% 0.00 in
14:18 39.2 °F 35.9 °F 23.34 in NW 5.3 mph -999 mph 88% 0.00 in
14:33 38.8 °F 35.8 °F 23.34 in WNW 6.8 mph -999 mph 89% 0.00 in
14:48 38.3 °F 35.9 °F 23.34 in WNW 5.8 mph -999 mph 91% 0.00 in
15:04 37.9 °F 35.8 °F 23.34 in NNW 3.7 mph -999 mph 92% 0.00 in
15:19 37.8 °F 35.4 °F 23.33 in NNW 4.7 mph -999 mph 91% 0.00 in
15:34 37.4 °F 35.3 °F 23.33 in WNW 3.2 mph -999 mph 92% 0.00 in
15:50 37 °F 35.2 °F 23.32 in WNW 3.7 mph -999 mph 93% 0.00 in
16:05 36.7 °F 34.9 °F 23.32 in West 4.7 mph -999 mph 93% 0.00 in
16:20 36.5 °F 34.7 °F 23.32 in Calm   -999 mph 93% 0.00 in
16:36 36.1 °F 34.3 °F 23.33 in West 2.7 mph -999 mph 93% 0.00 in
16:51 35.8 °F 34 °F 23.33 in WNW 2.7 mph -999 mph 93% 0.00 in
17:06 35.1 °F 33.3 °F 23.32 in WSW 1.7 mph -999 mph 93% 0.00 in
17:21 34.7 °F 32.9 °F 23.32 in NW 1.1 mph -999 mph 93% 0.00 in
17:36 34.5 °F 32.7 °F 23.32 in South 1.7 mph -999 mph 93% 0.00 in
17:52 34.7 °F 32.9 °F 23.32 in West 1.7 mph -999 mph 93% 0.00 in
18:07 34.9 °F 32.8 °F 23.32 in South 2.7 mph -999 mph 92% 0.00 in
18:22 35.1 °F 33.3 °F 23.32 in West 2.7 mph -999 mph 93% 0.00 in
18:37 35.2 °F 33.6 °F 23.32 in NNW 3.2 mph -999 mph 94% 0.00 in
18:52 35.2 °F 33.6 °F 23.32 in NNE 1.7 mph -999 mph 94% 0.00 in
19:08 35.2 °F 33.4 °F 23.32 in SW 2.7 mph -999 mph 93% 0.00 in
19:23 35.2 °F 33.1 °F 23.31 in WNW 1.1 mph -999 mph 92% 0.00 in
19:38 35.1 °F 33 °F 23.32 in NW 3.7 mph -999 mph 92% 0.00 in
19:54 34.9 °F 32.8 °F 23.31 in NW 4.2 mph -999 mph 92% 0.00 in
20:09 34.9 °F 32.5 °F 23.32 in NW 2.7 mph -999 mph 91% 0.00 in
20:24 34.9 °F 32.5 °F 23.32 in NW 3.2 mph -999 mph 91% 0.00 in
20:40 34.7 °F 32.3 °F 23.32 in WSW 1.1 mph -999 mph 91% 0.00 in
20:55 34.7 °F 32.3 °F 23.32 in Calm   -999 mph 91% 0.00 in
21:10 33.6 °F 31.3 °F 23.32 in NW 4.2 mph -999 mph 91% 0.00 in
21:25 32.9 °F 30.6 °F 23.32 in South 2.2 mph -999 mph 91% 0.00 in
21:41 32.5 °F 30.4 °F 23.32 in NW 2.7 mph -999 mph 92% 0.00 in
21:56 31.8 °F 30.3 °F 23.32 in NNW 2.2 mph -999 mph 94% 0.00 in
22:11 31.3 °F 30 °F 23.31 in NW 4.7 mph -999 mph 95% 0.00 in
22:26 31.1 °F 30.1 °F 23.31 in NW 3.7 mph -999 mph 96% 0.00 in
22:42 31.1 °F 30.1 °F 23.31 in NW 4.2 mph -999 mph 96% 0.00 in
22:57 31.3 °F 30.3 °F 23.31 in West 5.3 mph -999 mph 96% 0.00 in
23:12 31.5 °F 30.5 °F 23.31 in Calm   -999 mph 96% 0.00 in
23:27 31.5 °F 30 °F 23.30 in NW 5.8 mph -999 mph 94% 0.00 in
23:42 31.5 °F 29.4 °F 23.30 in West 5.3 mph -999 mph 92% 0.00 in
23:58 31.1 °F 29.6 °F 23.31 in SW 2.7 mph -999 mph 94% 0.00 in
Big Bear CA Weather